Time;durP1;ratioP1;P1;durP2;ratioP2;P2;SDS_P1;SDS_P2;PMS_P1;PMS_P2;Temp;Humidity;BMP_temperature;BMP_pressure;BME280_temperature;BME280_humidity;BME280_pressure;Samples;Min_cycle;Max_cycle;Signal;HPM_P1;HPM_P2
2023/05/28 00:00:27;;;;;;;1.52;0.57;;;;;;;16.59;75.24;101474.13;5098964;28;20084;-55
2023/05/28 00:02:52;;;;;;;1.55;0.77;;;;;;;16.63;75.01;101474.16;5110993;28;20116;-55
2023/05/28 00:05:18;;;;;;;1.27;0.93;;;;;;;16.56;75.36;101476.81;5102906;28;20022;-58
2023/05/28 00:07:43;;;;;;;2.05;1.00;;;;;;;16.58;75.42;101469.06;5111025;28;20477;-58
2023/05/28 00:10:09;;;;;;;1.40;0.70;;;;;;;16.60;74.66;101472.19;5111481;28;20046;-55
2023/05/28 00:12:35;;;;;;;1.00;0.82;;;;;;;16.52;75.02;101465.13;5103096;28;20042;-56
2023/05/28 00:15:00;;;;;;;0.70;0.60;;;;;;;16.43;75.72;101465.41;5089929;28;20024;-58
2023/05/28 00:17:26;;;;;;;1.30;0.70;;;;;;;16.47;75.33;101462.72;5110652;28;20490;-56
2023/05/28 00:19:51;;;;;;;0.85;0.55;;;;;;;16.26;76.16;101466.00;5110921;28;20492;-56
2023/05/28 00:22:17;;;;;;;0.68;0.55;;;;;;;16.32;76.29;101469.94;5092695;28;20105;-57
2023/05/28 00:24:42;;;;;;;0.93;0.63;;;;;;;16.36;76.06;101461.81;5100834;28;20028;-54
2023/05/28 00:27:08;;;;;;;2.60;0.82;;;;;;;16.38;75.63;101470.38;5108908;28;20042;-55
2023/05/28 00:29:33;;;;;;;1.33;0.63;;;;;;;16.40;75.85;101466.13;5092380;28;20031;-55
2023/05/28 00:31:59;;;;;;;2.92;1.13;;;;;;;16.31;75.67;101464.88;5107431;28;20031;-57
2023/05/28 00:34:25;;;;;;;1.20;0.77;;;;;;;16.10;76.20;101463.50;5089112;28;20110;-56
2023/05/28 00:36:51;;;;;;;0.65;0.50;;;;;;;15.89;77.07;101476.06;5091395;28;20055;-56
2023/05/28 00:39:18;;;;;;;4.97;0.77;;;;;;;15.84;77.63;101470.97;5110929;28;20430;-53
2023/05/28 00:41:43;;;;;;;1.00;0.75;;;;;;;15.86;77.56;101479.53;5102608;28;20046;-57
2023/05/28 00:44:09;;;;;;;3.58;0.68;;;;;;;15.81;77.30;101467.06;5089873;28;20031;-55
2023/05/28 00:46:56;;;;;;;0.63;0.63;;;;;;;15.79;77.28;101474.81;5092388;28;20097;-55
2023/05/28 00:49:22;;;;;;;4.20;1.08;;;;;;;15.81;77.22;101472.50;5008035;28;20053;-51
2023/05/28 00:51:48;;;;;;;1.00;0.52;;;;;;;15.65;78.04;101466.47;5000756;28;20622;-54
2023/05/28 00:54:15;;;;;;;4.10;0.68;;;;;;;15.70;77.81;101468.84;5004735;28;20048;-56
2023/05/28 00:56:41;;;;;;;1.23;0.80;;;;;;;15.64;78.02;101464.88;5005275;28;20493;-55
2023/05/28 00:59:07;;;;;;;1.67;0.70;;;;;;;15.61;78.10;101464.84;5007508;28;20076;-55
2023/05/28 01:01:35;;;;;;;1.58;1.05;;;;;;;15.53;78.78;101460.47;4998083;28;20424;-52
2023/05/28 01:04:01;;;;;;;1.08;0.47;;;;;;;15.55;78.69;101458.97;4992016;28;20056;-54
2023/05/28 01:06:28;;;;;;;1.42;0.70;;;;;;;15.39;78.74;101467.25;4995802;28;20037;-55
2023/05/28 01:08:54;;;;;;;1.20;0.77;;;;;;;15.42;78.99;101460.34;5006921;28;20033;-57
2023/05/28 01:11:20;;;;;;;0.80;0.65;;;;;;;15.46;78.52;101458.47;5008094;28;20155;-54
2023/05/28 01:13:47;;;;;;;4.03;1.10;;;;;;;15.30;79.14;101464.03;5002137;28;20309;-58
2023/05/28 01:16:13;;;;;;;1.13;0.70;;;;;;;15.36;79.35;101461.78;4996281;28;20138;-57
2023/05/28 01:18:40;;;;;;;1.80;1.08;;;;;;;15.44;78.26;101458.03;4990999;28;20044;-52
2023/05/28 01:21:07;;;;;;;1.60;0.68;;;;;;;15.12;79.49;101448.63;5007973;28;20044;-53
2023/05/28 01:23:43;;;;;;;2.83;1.15;;;;;;;15.13;79.40;101458.34;4999276;28;20083;-52
2023/05/28 01:26:12;;;;;;;1.17;0.65;;;;;;;15.17;79.35;101456.47;5031586;28;20039;-56
2023/05/28 01:28:41;;;;;;;2.67;0.60;;;;;;;15.21;79.27;101458.06;5089367;28;20107;-53
2023/05/28 01:31:09;;;;;;;3.83;1.35;;;;;;;15.26;79.42;101452.34;5091653;28;20047;-55
2023/05/28 01:33:35;;;;;;;1.42;0.80;;;;;;;15.34;79.15;101456.72;5092239;28;20035;-53
2023/05/28 01:36:07;;;;;;;2.83;0.60;;;;;;;15.39;78.66;101448.25;5090830;28;20118;-55
2023/05/28 01:38:36;;;;;;;0.70;0.70;;;;;;;15.37;78.21;101449.75;5104509;28;20031;-57
2023/05/28 01:41:02;;;;;;;1.67;0.82;;;;;;;15.31;78.28;101446.56;5091683;28;20023;-54
2023/05/28 01:43:28;;;;;;;0.50;0.50;;;;;;;15.31;78.60;101448.53;5107787;28;20107;-52
2023/05/28 01:45:54;;;;;;;3.55;0.88;;;;;;;15.18;78.17;101447.94;5089406;28;20127;-51
2023/05/28 01:48:21;;;;;;;0.57;0.47;;;;;;;15.16;79.34;101444.81;5101098;28;20053;-57
2023/05/28 01:50:47;;;;;;;3.50;0.80;;;;;;;15.20;78.52;101445.66;5087882;28;20026;-56
2023/05/28 01:53:12;;;;;;;1.88;0.70;;;;;;;15.16;78.43;101435.88;5106599;28;20023;-51
2023/05/28 01:55:38;;;;;;;1.27;0.60;;;;;;;15.01;79.03;101440.34;5084139;28;20472;-57
2023/05/28 01:58:05;;;;;;;2.03;0.70;;;;;;;14.83;79.49;101435.78;5099038;28;20028;-56
2023/05/28 02:00:34;;;;;;;2.55;1.65;;;;;;;14.89;80.10;101439.75;5074307;28;20031;-58
2023/05/28 02:02:59;;;;;;;0.88;0.88;;;;;;;14.77;80.13;101427.16;5088247;28;20027;-55
2023/05/28 02:05:25;;;;;;;1.02;0.77;;;;;;;14.81;80.35;101432.63;5075092;28;20032;-57
2023/05/28 02:07:50;;;;;;;3.58;1.25;;;;;;;14.82;79.87;101434.22;5108893;28;20027;-57
2023/05/28 02:10:16;;;;;;;3.67;0.75;;;;;;;14.81;79.66;101440.78;5085530;28;20020;-56
2023/05/28 02:12:44;;;;;;;2.83;1.30;;;;;;;14.78;79.64;101436.88;5108675;28;20031;-56
2023/05/28 02:15:11;;;;;;;3.25;1.17;;;;;;;14.73;79.63;101425.56;5089709;28;20418;-58
2023/05/28 02:17:36;;;;;;;1.80;0.85;;;;;;;14.73;79.57;101422.84;5082844;28;20394;-55
2023/05/28 02:20:02;;;;;;;1.17;0.85;;;;;;;14.67;80.02;101433.22;5095256;28;20045;-57
2023/05/28 02:22:28;;;;;;;2.75;0.85;;;;;;;14.65;80.30;101423.88;5095426;28;20027;-58
2023/05/28 02:24:54;;;;;;;1.33;0.80;;;;;;;14.68;80.34;101423.13;5107729;28;20036;-56
2023/05/28 02:27:19;;;;;;;8.70;0.60;;;;;;;14.72;79.76;101429.41;5110049;28;20077;-55
2023/05/28 02:29:46;;;;;;;0.90;0.60;;;;;;;14.65;79.40;101430.09;5111012;28;20023;-54
2023/05/28 02:32:11;;;;;;;3.28;0.85;;;;;;;14.70;79.64;101431.69;5078520;28;20055;-54
2023/05/28 02:34:38;;;;;;;1.52;0.70;;;;;;;14.63;79.61;101428.88;5095463;28;20074;-53
2023/05/28 02:37:03;;;;;;;0.77;0.73;;;;;;;14.59;79.56;101426.13;5073670;28;20030;-54
2023/05/28 02:39:29;;;;;;;0.80;0.75;;;;;;;14.60;79.57;101429.59;5100727;28;20040;-55
2023/05/28 02:41:55;;;;;;;1.45;1.00;;;;;;;14.37;80.56;101419.56;5096447;28;20027;-57
2023/05/28 02:44:21;;;;;;;1.05;0.50;;;;;;;14.45;79.92;101426.66;5092183;28;20024;-54
2023/05/28 02:46:47;;;;;;;0.55;0.55;;;;;;;14.40;80.43;101428.91;5108571;28;20394;-56
2023/05/28 02:49:14;;;;;;;1.25;0.85;;;;;;;14.36;80.56;101428.81;5112201;28;20024;-53
2023/05/28 02:51:40;;;;;;;3.13;0.47;;;;;;;14.37;79.98;101424.19;5103798;28;20027;-57
2023/05/28 02:54:18;;;;;;;1.42;0.65;;;;;;;14.33;80.02;101428.75;5096597;28;20028;-54
2023/05/28 02:56:43;;;;;;;1.60;0.90;;;;;;;14.30;80.10;101426.78;5099921;28;20122;-52
2023/05/28 02:59:09;;;;;;;2.67;1.10;;;;;;;14.30;80.30;101430.25;5112175;28;20043;-55
2023/05/28 03:01:55;;;;;;;0.73;0.73;;;;;;;14.30;80.46;101424.06;5103081;28;20028;-55
2023/05/28 03:04:20;;;;;;;1.00;0.52;;;;;;;14.23;80.75;101418.47;5028207;28;20033;-53
2023/05/28 03:06:47;;;;;;;1.40;0.65;;;;;;;14.22;80.93;101419.63;5029005;28;20466;-55
2023/05/28 03:09:12;;;;;;;0.95;0.65;;;;;;;14.31;80.81;101429.13;5031487;28;20079;-56
2023/05/28 03:11:39;;;;;;;5.30;1.05;;;;;;;14.28;80.43;101420.94;5019062;28;20065;-58
2023/05/28 03:14:04;;;;;;;0.70;0.70;;;;;;;14.04;81.28;101426.63;5047841;28;20067;-55
2023/05/28 03:16:32;;;;;;;0.75;0.55;;;;;;;14.00;81.97;101423.88;5048365;28;20025;-57
2023/05/28 03:18:59;;;;;;;3.42;0.80;;;;;;;14.03;81.72;101420.44;5029859;28;20435;-55
2023/05/28 03:21:26;;;;;;;1.15;0.80;;;;;;;14.04;81.99;101421.22;5005302;28;20041;-58
2023/05/28 03:23:51;;;;;;;1.92;1.20;;;;;;;14.11;82.05;101421.38;5033029;28;20040;-57
2023/05/28 03:26:37;;;;;;;1.13;0.70;;;;;;;14.11;81.87;101424.84;5045114;28;20496;-57
2023/05/28 03:29:03;;;;;;;4.25;0.63;;;;;;;13.92;82.96;101416.75;5005403;28;20047;-57
2023/05/28 03:31:49;;;;;;;1.98;1.23;;;;;;;14.03;82.71;101436.69;5028924;28;20067;-55
2023/05/28 03:34:20;;;;;;;3.13;1.27;;;;;;;14.05;82.56;101428.97;5049274;28;20040;-54
2023/05/28 03:36:46;;;;;;;1.08;0.50;;;;;;;14.15;81.18;101425.69;5031547;28;20525;-52
2023/05/28 03:39:12;;;;;;;0.57;0.55;;;;;;;13.90;82.57;101427.16;5029782;28;20032;-56
2023/05/28 03:41:37;;;;;;;4.45;1.13;;;;;;;13.88;82.51;101426.72;5069720;28;20039;-54
2023/05/28 03:44:04;;;;;;;1.45;0.60;;;;;;;13.92;82.95;101419.44;5093595;28;20027;-55
2023/05/28 03:46:30;;;;;;;2.45;0.88;;;;;;;13.85;83.17;101422.03;5092925;28;20173;-56
2023/05/28 03:48:56;;;;;;;1.50;1.00;;;;;;;13.66;83.65;101422.03;5091247;28;20106;-56
2023/05/28 03:51:24;;;;;;;1.75;1.10;;;;;;;13.74;84.03;101412.13;5075847;28;20110;-56
2023/05/28 03:53:50;;;;;;;0.80;0.57;;;;;;;13.93;83.66;101417.53;5101098;28;20188;-55
2023/05/28 03:56:16;;;;;;;2.70;0.90;;;;;;;13.98;82.94;101423.44;5079480;28;20533;-56
2023/05/28 03:58:42;;;;;;;2.88;1.60;;;;;;;13.90;83.11;101410.91;5103248;28;20076;-56
2023/05/28 04:01:07;;;;;;;1.77;0.85;;;;;;;13.86;83.02;101415.47;5096625;28;20073;-53
2023/05/28 04:03:34;;;;;;;1.02;0.80;;;;;;;13.91;83.58;101417.09;5089990;28;20031;-58
2023/05/28 04:06:00;;;;;;;1.73;0.95;;;;;;;14.00;83.51;101420.38;5084334;28;20039;-55
2023/05/28 04:08:26;;;;;;;0.88;0.63;;;;;;;14.09;83.61;101429.84;5090452;28;20126;-56
2023/05/28 04:10:52;;;;;;;1.80;0.50;;;;;;;14.11;83.45;101432.19;5092477;28;20032;-56
2023/05/28 04:13:17;;;;;;;1.08;0.60;;;;;;;14.20;83.19;101424.63;5092312;28;20035;-56
2023/05/28 04:15:43;;;;;;;4.22;0.93;;;;;;;14.26;83.31;101434.81;5108808;28;20504;-57
2023/05/28 04:18:09;;;;;;;1.65;0.95;;;;;;;14.17;83.20;101420.69;5092586;28;20028;-57
2023/05/28 04:20:35;;;;;;;2.35;0.90;;;;;;;14.04;84.70;101422.00;5092933;28;20482;-52
2023/05/28 04:23:02;;;;;;;7.30;0.80;;;;;;;14.12;84.81;101425.63;5092158;28;20042;-57
2023/05/28 04:25:29;;;;;;;1.42;0.93;;;;;;;14.21;84.02;101426.16;5088819;28;20039;-57
2023/05/28 04:27:58;;;;;;;2.53;1.45;;;;;;;14.25;84.38;101425.09;5090279;28;20011;-54
2023/05/28 04:30:24;;;;;;;0.77;0.60;;;;;;;14.40;83.82;101432.38;5092669;28;20066;-57
2023/05/28 04:32:53;;;;;;;4.32;1.30;;;;;;;14.40;84.07;101435.06;5107573;28;20028;-50
2023/05/28 04:35:19;;;;;;;1.25;1.10;;;;;;;14.41;84.00;101435.88;5090341;28;20027;-57
2023/05/28 04:37:45;;;;;;;1.17;0.98;;;;;;;14.45;83.82;101432.09;5091962;28;20073;-57
2023/05/28 04:40:14;;;;;;;4.53;1.30;;;;;;;14.45;84.36;101432.09;5091801;28;20049;-57
2023/05/28 04:42:40;;;;;;;1.50;0.80;;;;;;;14.45;84.65;101437.50;5092483;28;20126;-54
2023/05/28 04:45:10;;;;;;;1.65;0.88;;;;;;;14.52;84.20;101446.91;5089328;28;20027;-56
2023/05/28 04:47:36;;;;;;;1.80;1.00;;;;;;;14.55;84.69;101446.97;5091307;28;20098;-57
2023/05/28 04:50:04;;;;;;;2.47;1.25;;;;;;;14.65;83.80;101442.84;5106222;22;20531;-56
2023/05/28 04:52:35;;;;;;;0.82;0.82;;;;;;;14.73;84.24;101439.13;5052680;28;20094;-55
2023/05/28 04:55:05;;;;;;;3.55;0.98;;;;;;;14.67;84.48;101437.84;5056956;28;20032;-58
2023/05/28 04:57:32;;;;;;;1.25;0.77;;;;;;;14.85;84.11;101438.91;5068334;28;20476;-58
2023/05/28 04:59:59;;;;;;;1.02;0.82;;;;;;;14.89;84.10;101428.91;5065725;28;20032;-54
2023/05/28 05:02:25;;;;;;;2.00;0.80;;;;;;;14.99;83.52;101431.00;5064946;28;20028;-55
2023/05/28 05:04:51;;;;;;;5.47;0.73;;;;;;;15.17;83.06;101437.47;5069324;28;20021;-50
2023/05/28 05:07:18;;;;;;;2.55;1.58;;;;;;;15.14;83.14;101436.25;5068046;28;20390;-55
2023/05/28 05:09:44;;;;;;;1.27;0.70;;;;;;;15.32;83.31;101433.78;5069533;28;20039;-52
2023/05/28 05:12:10;;;;;;;1.08;0.90;;;;;;;15.57;82.90;101434.94;5068357;28;20127;-50
2023/05/28 05:14:35;;;;;;;1.42;1.23;;;;;;;15.99;81.67;101440.88;5074120;28;20029;-56
2023/05/28 05:17:02;;;;;;;3.30;2.05;;;;;;;16.43;79.37;101440.94;5066029;28;20041;-51
2023/05/28 05:19:28;;;;;;;1.40;0.85;;;;;;;16.69;77.73;101442.72;5065041;28;20040;-50
2023/05/28 05:21:54;;;;;;;3.25;1.35;;;;;;;17.08;76.65;101439.16;5061887;28;20028;-56
2023/05/28 05:24:19;;;;;;;1.65;1.17;;;;;;;17.56;75.73;101442.53;5067346;28;20020;-56
2023/05/28 05:26:45;;;;;;;1.00;0.80;;;;;;;17.77;74.18;101441.84;5065395;28;20028;-55
2023/05/28 05:29:10;;;;;;;1.05;0.85;;;;;;;17.86;73.02;101436.84;5066212;28;20027;-55
2023/05/28 05:31:36;;;;;;;3.95;0.98;;;;;;;18.02;72.37;101442.72;5068329;28;20082;-53
2023/05/28 05:34:04;;;;;;;0.80;0.70;;;;;;;18.25;71.42;101435.00;5068284;28;20035;-54
2023/05/28 05:36:48;;;;;;;3.50;1.33;;;;;;;18.39;70.82;101437.72;5078237;28;20080;-54
2023/05/28 05:39:31;;;;;;;1.75;0.90;;;;;;;18.60;69.92;101442.47;5068485;28;20567;-56
2023/05/28 05:42:15;;;;;;;2.78;0.88;;;;;;;18.86;69.03;101442.84;5069737;28;20097;-49
2023/05/28 05:44:44;;;;;;;2.72;1.10;;;;;;;18.95;68.65;101444.38;5065417;28;20078;-57
2023/05/28 05:47:10;;;;;;;1.17;0.88;;;;;;;19.16;67.72;101439.69;5065871;28;20016;-57
2023/05/28 05:49:37;;;;;;;3.40;1.08;;;;;;;19.32;65.88;101441.94;5067773;28;20570;-56
2023/05/28 05:52:02;;;;;;;5.47;0.90;;;;;;;19.59;64.13;101435.66;5068555;28;20111;-55
2023/05/28 05:54:31;;;;;;;2.28;1.08;;;;;;;19.94;63.68;101439.44;5065569;28;20096;-57
2023/05/28 05:56:57;;;;;;;1.02;0.63;;;;;;;19.88;62.43;101446.47;5066462;28;20033;-58
2023/05/28 05:59:23;;;;;;;1.67;0.70;;;;;;;19.74;64.21;101434.41;5068088;28;20029;-55
2023/05/28 06:01:49;;;;;;;1.40;0.80;;;;;;;19.95;63.98;101432.75;5055614;28;20040;-56
2023/05/28 06:04:15;;;;;;;2.15;1.00;;;;;;;20.07;64.00;101443.25;5064943;28;20033;-57
2023/05/28 06:07:03;;;;;;;1.27;0.60;;;;;;;20.17;63.45;101434.97;5059530;28;20032;-56
2023/05/28 06:09:52;;;;;;;0.85;0.60;;;;;;;20.03;65.17;101440.53;5056820;28;20036;-56
2023/05/28 06:12:22;;;;;;;3.20;0.82;;;;;;;19.91;65.60;101451.94;5068213;28;20028;-52
2023/05/28 06:14:49;;;;;;;1.08;0.90;;;;;;;19.78;65.85;101443.38;5065007;28;20040;-52
2023/05/28 06:17:16;;;;;;;0.88;0.73;;;;;;;19.65;66.10;101447.75;5064637;28;20012;-51
2023/05/28 06:19:42;;;;;;;2.42;0.80;;;;;;;19.59;66.76;101443.84;5063831;28;20052;-54
2023/05/28 06:22:09;;;;;;;3.08;1.00;;;;;;;19.59;68.75;101445.81;5069572;28;20391;-49
2023/05/28 06:24:36;;;;;;;3.67;0.90;;;;;;;19.47;69.98;101447.00;5066905;28;20032;-56
2023/05/28 06:27:03;;;;;;;1.90;0.70;;;;;;;19.48;69.92;101440.38;5066563;28;20522;-50
2023/05/28 06:29:28;;;;;;;2.90;0.93;;;;;;;19.31;69.75;101445.88;5068084;28;20024;-53
2023/05/28 06:31:54;;;;;;;1.58;0.90;;;;;;;19.32;69.62;101442.78;5067761;28;20032;-54
2023/05/28 06:34:20;;;;;;;0.82;0.70;;;;;;;19.24;69.84;101440.44;5068361;28;20040;-49
2023/05/28 06:36:45;;;;;;;1.45;0.80;;;;;;;19.31;70.20;101448.59;5063829;28;20115;-53
2023/05/28 06:39:12;;;;;;;1.13;0.57;;;;;;;19.39;70.60;101453.69;5067707;28;20036;-56
2023/05/28 06:41:39;;;;;;;1.63;0.65;;;;;;;19.54;71.33;101454.41;5067580;28;20067;-53
2023/05/28 06:44:05;;;;;;;0.95;0.60;;;;;;;19.73;71.08;101452.00;5065691;28;20071;-54
2023/05/28 06:46:43;;;;;;;2.15;1.00;;;;;;;19.93;70.91;101460.50;5078307;28;20021;-54
2023/05/28 06:49:09;;;;;;;1.30;0.90;;;;;;;20.23;70.56;101460.75;5067797;28;20448;-52
2023/05/28 06:51:36;;;;;;;2.22;1.08;;;;;;;20.50;69.80;101460.97;5069358;28;20115;-53
2023/05/28 06:54:02;;;;;;;1.30;0.98;;;;;;;20.72;67.48;101451.41;5064856;28;20729;-50
2023/05/28 06:56:30;;;;;;;2.97;1.05;;;;;;;20.84;66.62;101464.63;5064404;28;20024;-52
2023/05/28 06:59:17;;;;;;;2.65;0.50;;;;;;;20.83;67.55;101456.81;5066926;28;20521;-56
2023/05/28 07:02:09;;;;;;;1.63;0.88;;;;;;;20.79;66.63;101454.06;5061768;28;20037;-57
2023/05/28 07:04:50;;;;;;;3.33;0.88;;;;;;;20.69;66.98;101463.19;5071863;28;20037;-50
2023/05/28 07:07:20;;;;;;;2.38;0.73;;;;;;;20.67;65.87;101474.50;5057374;28;20034;-51
2023/05/28 07:09:46;;;;;;;2.75;0.85;;;;;;;20.55;65.40;101474.25;5072720;28;20024;-57
2023/05/28 07:12:11;;;;;;;1.55;0.82;;;;;;;20.44;65.03;101474.28;5065292;28;20067;-59
2023/05/28 07:14:42;;;;;;;1.05;0.73;;;;;;;20.43;65.66;101472.75;5071122;28;20036;-54
2023/05/28 07:17:10;;;;;;;0.75;0.60;;;;;;;20.37;66.00;101484.50;5063314;28;20031;-53
2023/05/28 07:19:37;;;;;;;1.38;0.70;;;;;;;20.43;66.15;101482.91;5070361;28;20035;-58
2023/05/28 07:22:03;;;;;;;0.70;0.52;;;;;;;20.55;65.88;101483.22;5064870;28;20029;-56
2023/05/28 07:24:28;;;;;;;3.83;1.27;;;;;;;20.72;65.89;101481.53;5067591;28;20131;-52
2023/05/28 07:26:54;;;;;;;1.52;0.75;;;;;;;21.04;64.60;101479.31;5067820;28;20463;-53
2023/05/28 07:29:19;;;;;;;1.60;0.75;;;;;;;21.16;62.82;101480.78;5070793;28;20024;-56
2023/05/28 07:31:45;;;;;;;2.08;0.80;;;;;;;21.17;63.80;101485.88;5070795;28;20036;-51
2023/05/28 07:34:11;;;;;;;2.00;1.05;;;;;;;21.32;62.88;101484.53;5072477;28;20017;-53
2023/05/28 07:36:39;;;;;;;1.83;0.70;;;;;;;21.34;61.48;101489.59;5069093;28;20391;-50
2023/05/28 07:39:05;;;;;;;2.45;0.70;;;;;;;21.47;61.52;101491.41;5070500;28;20029;-52
2023/05/28 07:41:31;;;;;;;0.95;0.80;;;;;;;21.39;60.29;101483.66;5070988;28;20028;-50
2023/05/28 07:44:10;;;;;;;1.20;0.68;;;;;;;21.49;62.14;101488.25;5067378;28;20068;-55
2023/05/28 07:46:36;;;;;;;0.75;0.35;;;;;;;21.42;61.43;101488.34;5059030;28;20553;-54
2023/05/28 07:49:12;;;;;;;2.03;0.52;;;;;;;21.29;61.07;101495.53;5054594;28;20107;-50
2023/05/28 07:51:42;;;;;;;1.00;0.65;;;;;;;21.20;62.38;101492.47;5064529;28;20119;-50
2023/05/28 07:54:11;;;;;;;1.85;0.90;;;;;;;21.24;62.71;101482.25;5069386;28;20482;-57
2023/05/28 07:56:38;;;;;;;2.25;0.88;;;;;;;21.14;63.18;101483.94;5069806;28;20028;-50
2023/05/28 07:59:06;;;;;;;1.17;0.50;;;;;;;21.14;62.17;101483.94;5054168;28;20041;-57
2023/05/28 08:01:34;;;;;;;1.63;0.70;;;;;;;21.14;62.26;101486.66;5061522;28;20835;-53
2023/05/28 08:04:03;;;;;;;1.33;0.60;;;;;;;21.17;62.82;101494.09;5064160;28;20028;-54
2023/05/28 08:06:33;;;;;;;1.30;0.73;;;;;;;21.45;63.06;101496.53;5053209;28;20044;-52
2023/05/28 08:09:00;;;;;;;1.60;0.82;;;;;;;21.58;62.88;101490.53;5069459;28;20031;-57
2023/05/28 08:11:28;;;;;;;2.08;1.05;;;;;;;21.71;61.71;101484.09;5070212;28;20028;-53
2023/05/28 08:13:54;;;;;;;2.08;0.80;;;;;;;21.78;61.84;101488.72;5070149;28;20395;-51
2023/05/28 08:16:19;;;;;;;1.40;0.75;;;;;;;22.11;61.61;101482.44;5056696;28;20029;-58
2023/05/28 08:19:03;;;;;;;1.23;0.73;;;;;;;22.51;60.52;101492.47;5070983;28;20066;-59
2023/05/28 08:21:30;;;;;;;1.63;0.70;;;;;;;22.59;58.79;101487.66;5060515;28;20094;-57
2023/05/28 08:23:57;;;;;;;2.30;1.25;;;;;;;22.71;58.01;101490.59;5065952;28;20115;-58
2023/05/28 08:26:23;;;;;;;0.98;0.63;;;;;;;22.96;58.27;101490.16;5061888;28;20112;-59
2023/05/28 08:28:48;;;;;;;1.58;0.90;;;;;;;23.13;57.73;101489.13;5068897;28;20068;-59
2023/05/28 08:31:14;;;;;;;3.47;0.98;;;;;;;23.26;55.95;101492.78;5062259;28;20127;-58
2023/05/28 08:33:59;;;;;;;2.25;0.95;;;;;;;23.34;54.25;101490.72;5069701;28;20044;-58
2023/05/28 08:36:26;;;;;;;0.68;0.68;;;;;;;23.49;54.20;101489.25;5069253;28;20024;-57
2023/05/28 08:38:54;;;;;;;2.25;0.88;;;;;;;23.43;53.70;101488.19;5062238;28;20020;-59
2023/05/28 08:41:21;;;;;;;2.78;0.82;;;;;;;23.67;53.81;101489.69;5060901;28;20039;-58
2023/05/28 08:43:47;;;;;;;1.13;0.77;;;;;;;23.83;52.49;101487.75;5060830;28;20403;-59
2023/05/28 08:46:15;;;;;;;0.95;0.55;;;;;;;23.88;52.62;101492.78;5068583;28;20119;-57
2023/05/28 08:49:00;;;;;;;1.20;0.50;;;;;;;24.04;53.85;101484.59;5080690;28;20028;-58
2023/05/28 08:51:30;;;;;;;0.90;0.50;;;;;;;24.34;53.13;101486.28;5068261;28;20411;-59
2023/05/28 08:53:59;;;;;;;2.78;0.65;;;;;;;24.58;53.63;101487.69;5049228;28;20036;-58
2023/05/28 08:56:28;;;;;;;0.93;0.70;;;;;;;24.65;52.57;101484.75;5067100;28;20033;-59
2023/05/28 08:58:53;;;;;;;3.35;0.80;;;;;;;24.81;51.30;101479.28;5070432;28;20036;-59
2023/05/28 09:01:19;;;;;;;2.40;0.70;;;;;;;24.74;49.77;101489.69;5069297;28;20441;-59
2023/05/28 09:04:08;;;;;;;1.52;0.70;;;;;;;25.18;52.09;101482.66;5052098;28;20032;-59
2023/05/28 09:06:38;;;;;;;2.13;0.98;;;;;;;25.29;51.50;101481.19;5065567;28;20032;-58
2023/05/28 09:09:07;;;;;;;1.10;0.75;;;;;;;25.32;49.45;101476.78;5053032;28;20485;-58
2023/05/28 09:11:47;;;;;;;0.98;0.75;;;;;;;25.40;50.05;101491.94;5065522;28;20035;-57
2023/05/28 09:14:13;;;;;;;1.77;0.63;;;;;;;25.71;49.32;101482.78;5075618;28;20028;-57
2023/05/28 09:16:41;;;;;;;4.03;0.77;;;;;;;25.75;48.70;101474.38;5060771;28;20016;-60
2023/05/28 09:19:10;;;;;;;2.40;0.75;;;;;;;25.91;48.19;101472.34;5067830;28;20093;-59
2023/05/28 09:21:38;;;;;;;2.35;0.77;;;;;;;25.91;47.54;101474.31;5062019;28;20494;-58
2023/05/28 09:24:06;;;;;;;1.05;0.35;;;;;;;25.97;47.43;101469.78;5075347;28;20032;-59
2023/05/28 09:26:54;;;;;;;0.63;0.50;;;;;;;25.79;48.37;101466.78;5065161;28;20047;-57
2023/05/28 09:29:27;;;;;;;3.20;0.70;;;;;;;26.09;49.33;101468.28;5084045;28;20059;-59
2023/05/28 09:32:01;;;;;;;1.00;0.52;;;;;;;26.25;47.77;101468.19;5069568;28;20068;-58
2023/05/28 09:34:27;;;;;;;1.50;0.90;;;;;;;26.60;47.19;101467.03;5068521;28;20483;-59
2023/05/28 09:36:58;;;;;;;1.38;0.77;;;;;;;26.68;46.06;101469.13;5065342;28;20043;-57
2023/05/28 09:39:26;;;;;;;1.15;0.57;;;;;;;26.45;45.52;101465.97;5068619;28;20036;-59
2023/05/28 09:42:03;;;;;;;0.60;0.40;;;;;;;26.44;46.13;101465.19;5069149;28;20037;-60
2023/05/28 09:44:32;;;;;;;0.70;0.55;;;;;;;26.64;46.49;101473.22;5065719;28;20566;-58
2023/05/28 09:46:58;;;;;;;1.88;0.60;;;;;;;26.69;45.74;101464.38;5060481;28;20024;-59
2023/05/28 09:49:24;;;;;;;0.73;0.60;;;;;;;26.68;45.84;101462.81;5068683;28;20023;-59
2023/05/28 09:51:53;;;;;;;0.65;0.52;;;;;;;26.99;45.50;101471.28;5069097;28;20044;-59
2023/05/28 09:54:20;;;;;;;3.03;0.52;;;;;;;27.25;44.21;101467.22;5061886;28;20039;-58
2023/05/28 09:56:50;;;;;;;1.13;0.43;;;;;;;27.22;43.61;101468.88;5066065;28;20032;-59
2023/05/28 09:59:18;;;;;;;1.02;0.60;;;;;;;27.22;41.99;101462.56;5065402;28;20407;-58
2023/05/28 10:01:56;;;;;;;3.40;1.00;;;;;;;26.97;42.51;101463.44;5065293;28;20028;-57
2023/05/28 10:04:28;;;;;;;0.68;0.45;;;;;;;26.72;42.34;101457.97;5068116;28;20376;-59
2023/05/28 10:06:55;;;;;;;0.57;0.40;;;;;;;26.99;43.57;101457.47;5066295;28;20039;-58
2023/05/28 10:09:21;;;;;;;2.00;0.68;;;;;;;27.15;43.21;101451.75;5066125;28;20025;-59
2023/05/28 10:12:09;;;;;;;0.47;0.40;;;;;;;27.37;43.50;101455.34;5062343;28;20063;-56
2023/05/28 10:14:36;;;;;;;0.98;0.65;;;;;;;27.62;43.76;101450.44;5069339;28;20037;-58
2023/05/28 10:17:02;;;;;;;0.68;0.32;;;;;;;27.84;42.53;101447.63;5063973;28;20073;-59
2023/05/28 10:19:29;;;;;;;1.08;0.38;;;;;;;27.75;41.36;101455.13;5068818;28;20462;-58
2023/05/28 10:21:55;;;;;;;0.40;0.30;;;;;;;27.80;40.92;101441.47;5069161;28;20036;-59
2023/05/28 10:24:22;;;;;;;1.35;0.50;;;;;;;27.80;41.59;101447.00;5068845;28;20111;-59
2023/05/28 10:26:47;;;;;;;2.85;0.35;;;;;;;28.30;40.69;101457.72;5064716;28;20036;-59
2023/05/28 10:29:13;;;;;;;1.85;0.43;;;;;;;28.85;40.06;101453.09;5071797;28;20032;-59
2023/05/28 10:31:39;;;;;;;2.00;0.57;;;;;;;28.99;39.71;101458.03;5067586;28;20111;-59
2023/05/28 10:34:15;;;;;;;1.13;0.60;;;;;;;29.03;38.95;101460.66;5066346;28;20035;-59
2023/05/28 10:36:53;;;;;;;1.30;1.02;;;;;;;29.29;38.55;101459.13;5068131;28;20029;-59
2023/05/28 10:39:18;;;;;;;2.38;0.70;;;;;;;29.36;37.41;101456.06;5069824;28;20174;-59
2023/05/28 10:41:44;;;;;;;1.30;0.63;;;;;;;29.10;38.33;101455.56;5068983;28;20115;-58
2023/05/28 10:44:10;;;;;;;0.43;0.32;;;;;;;29.17;37.35;101463.59;5074526;28;20017;-58
2023/05/28 10:46:39;;;;;;;0.82;0.63;;;;;;;28.57;38.73;101453.50;5071472;28;20075;-58
2023/05/28 10:49:10;;;;;;;0.90;0.50;;;;;;;28.45;39.92;101447.59;5059040;28;20035;-58
2023/05/28 10:51:59;;;;;;;2.35;0.50;;;;;;;28.03;40.68;101452.06;5092190;22;20484;-66
2023/05/28 10:54:35;;;;;;;1.60;0.50;;;;;;;27.77;40.14;101455.44;5066282;28;20033;-69
2023/05/28 10:57:12;;;;;;;1.65;0.60;;;;;;;27.63;39.90;101446.47;5052810;28;20175;-69
2023/05/28 10:59:38;;;;;;;0.60;0.40;;;;;;;27.93;40.75;101453.25;5079704;28;20519;-67
2023/05/28 11:02:06;;;;;;;0.47;0.43;;;;;;;27.94;40.22;101452.03;5065432;28;20025;-67
2023/05/28 11:04:37;;;;;;;2.95;0.73;;;;;;;28.10;39.38;101451.03;5068543;28;20094;-67
2023/05/28 11:07:04;;;;;;;0.98;0.60;;;;;;;28.19;39.30;101451.06;5065137;28;20028;-67
2023/05/28 11:09:30;;;;;;;1.30;0.77;;;;;;;28.34;38.87;101466.66;5072796;28;20127;-66
2023/05/28 11:12:02;;;;;;;1.80;0.70;;;;;;;28.64;38.82;101445.66;5071783;28;20107;-67
2023/05/28 11:14:35;;;;;;;1.10;0.40;;;;;;;28.86;38.63;101448.31;5066870;28;20033;-66
2023/05/28 11:17:01;;;;;;;0.70;0.50;;;;;;;28.70;37.57;101443.84;5061924;28;20388;-66
2023/05/28 11:19:26;;;;;;;2.40;0.80;;;;;;;28.81;38.12;101444.16;5072838;28;20028;-66
2023/05/28 11:21:53;;;;;;;2.28;0.93;;;;;;;28.48;38.82;101446.69;5070265;28;20056;-66
2023/05/28 11:24:18;;;;;;;2.58;0.50;;;;;;;28.14;39.40;101448.88;5060780;28;20492;-66
2023/05/28 11:26:44;;;;;;;1.88;0.60;;;;;;;27.84;39.16;101444.88;5063422;28;20048;-66
2023/05/28 11:29:10;;;;;;;0.77;0.50;;;;;;;27.79;40.59;101439.94;5071204;28;20032;-67